Terminal Aerodrome Forecast
Issued by NWS

Home | Current Version | Previous Version | Text Only | Print | Product List | Glossary On
Versions: 1 2 3 4 5 6 7 8 9 10 11 12 13 14 15 16 17 18 19
000
FTUS43 KMPX 171600 AAA
TAFRNH
TAF AMD
KRNH 171600Z 1716/1812 33013KT P6SM OVC008
     FM171730 33010KT P6SM OVC017
     FM172300 32007KT P6SM SCT040
     FM180200 32003KT P6SM SCT250
     FM180600 VRB02KT P6SM SCT150=

USA.gov is the U.S. government's official web portal to all federal, state and local government web resources and services.